createdAt,value
2023-05-16T00:00:54.372Z,100193.61
2023-05-16T00:01:58.629Z,100187.89
2023-05-16T00:03:04.632Z,100196.65
2023-05-16T00:04:12.127Z,100189.73
2023-05-16T00:05:15.932Z,100192.12
2023-05-16T00:06:19.260Z,100187.38
2023-05-16T00:07:21.982Z,100196.02
2023-05-16T00:08:25.637Z,100187.95
2023-05-16T00:09:29.059Z,100196.60
2023-05-16T00:10:31.567Z,100191.65
2023-05-16T00:11:35.281Z,100197.17
2023-05-16T00:12:41.761Z,100199.33
2023-05-16T00:13:45.945Z,100191.41
2023-05-16T00:14:53.234Z,100191.41
2023-05-16T00:15:59.981Z,100198.12
2023-05-16T00:17:05.436Z,100197.42
2023-05-16T00:18:08.458Z,100195.73
2023-05-16T00:19:12.247Z,100198.58
2023-05-16T00:20:17.612Z,100196.87
2023-05-16T00:21:23.059Z,100196.48
2023-05-16T00:22:26.004Z,100183.68
2023-05-16T00:23:31.593Z,100196.82
2023-05-16T00:24:35.031Z,100197.97
2023-05-16T00:25:38.697Z,100192.59
2023-05-16T00:26:43.054Z,100193.98
2023-05-16T00:27:49.536Z,100190.59
2023-05-16T00:28:54.128Z,100193.73
2023-05-16T00:29:57.417Z,100194.28
2023-05-16T00:31:01.128Z,100188.91
2023-05-16T00:32:04.202Z,100190.90
2023-05-16T00:33:09.863Z,100197.57
2023-05-16T00:34:13.463Z,100192.20
2023-05-16T00:35:17.028Z,100194.27
2023-05-16T00:36:23.559Z,100194.13
2023-05-16T00:37:26.868Z,100197.41
2023-05-16T00:38:31.414Z,100192.73
2023-05-16T00:39:36.384Z,100189.34
2023-05-16T00:40:39.864Z,100191.11
2023-05-16T00:41:43.492Z,100189.86
2023-05-16T00:42:46.909Z,100192.00
2023-05-16T00:43:50.726Z,100189.86
2023-05-16T00:44:54.223Z,100198.08
2023-05-16T00:45:58.721Z,100194.17
2023-05-16T00:47:03.350Z,100195.75
2023-05-16T00:48:06.864Z,100191.81
2023-05-16T00:49:10.342Z,100200.72
2023-05-16T00:50:14.142Z,100193.66
2023-05-16T00:51:18.489Z,100198.73
2023-05-16T00:52:22.316Z,100200.58
2023-05-16T00:53:27.818Z,100198.03
2023-05-16T00:54:31.502Z,100196.05
2023-05-16T00:55:37.629Z,100198.03
2023-05-16T00:56:43.835Z,100201.72
2023-05-16T00:57:48.313Z,100194.42
2023-05-16T00:58:52.324Z,100194.56
2023-05-16T00:59:56.140Z,100198.95
2023-05-16T01:00:58.343Z,100191.00
2023-05-16T01:02:02.396Z,100198.09
2023-05-16T01:03:05.878Z,100192.98
2023-05-16T01:04:08.609Z,100192.14
2023-05-16T01:05:11.472Z,100192.58
2023-05-16T01:06:16.541Z,100195.97
2023-05-16T01:07:21.716Z,100188.91
2023-05-16T01:08:25.113Z,100192.84
2023-05-16T01:09:28.935Z,100190.16
2023-05-16T01:10:41.527Z,100184.38
2023-05-16T01:11:49.623Z,100188.23
2023-05-16T01:13:01.303Z,100183.30
2023-05-16T01:14:22.763Z,100190.92
2023-05-16T01:15:33.254Z,100189.37
2023-05-16T01:16:47.121Z,100184.70
2023-05-16T01:18:07.109Z,100180.84
2023-05-16T01:19:28.089Z,100189.20
2023-05-16T01:20:33.527Z,100176.61
2023-05-16T01:21:41.537Z,100182.69
2023-05-16T01:22:49.952Z,100183.53
2023-05-16T01:23:54.313Z,100180.84
2023-05-16T01:24:58.937Z,100182.10
2023-05-16T01:26:24.184Z,100169.25
2023-05-16T01:27:29.401Z,100171.98
2023-05-16T01:28:35.887Z,100175.03
2023-05-16T01:29:39.497Z,100182.39
2023-05-16T01:30:43.128Z,100184.78
2023-05-16T01:31:45.635Z,100172.94
2023-05-16T01:32:50.047Z,100179.70
2023-05-16T01:33:53.722Z,100184.78
2023-05-16T01:34:57.344Z,100183.53
2023-05-16T01:36:08.369Z,100182.10
2023-05-16T01:37:14.690Z,100176.88
2023-05-16T01:38:19.645Z,100181.69
2023-05-16T01:39:28.584Z,100181.17
2023-05-16T01:40:40.032Z,100180.33
2023-05-16T01:41:52.661Z,100178.16
2023-05-16T01:42:58.219Z,100182.86
2023-05-16T01:44:04.029Z,100177.38
2023-05-16T01:45:16.514Z,100179.36
2023-05-16T01:46:20.920Z,100179.21
2023-05-16T01:47:26.082Z,100186.22
2023-05-16T01:48:32.554Z,100173.63
2023-05-16T01:49:42.531Z,100171.98
2023-05-16T01:50:47.689Z,100175.95
2023-05-16T01:51:52.784Z,100176.09
2023-05-16T01:53:11.431Z,100183.86
2023-05-16T01:54:16.819Z,100178.63
2023-05-16T01:55:30.243Z,100176.94
2023-05-16T01:56:35.942Z,100179.06
2023-05-16T01:57:39.561Z,100181.89
2023-05-16T01:58:47.778Z,100176.44
2023-05-16T01:59:52.786Z,100178.71
2023-05-16T02:00:59.408Z,100176.88
2023-05-16T02:02:03.374Z,100170.22
2023-05-16T02:03:07.607Z,100173.75
2023-05-16T02:04:11.271Z,100177.14
2023-05-16T02:05:15.162Z,100171.66
2023-05-16T02:06:20.337Z,100164.20
2023-05-16T02:07:25.659Z,100171.23
2023-05-16T02:08:29.961Z,100167.88
2023-05-16T02:09:33.672Z,100170.34
2023-05-16T02:10:37.274Z,100174.86
2023-05-16T02:11:39.526Z,100167.95
2023-05-16T02:12:42.414Z,100168.80
2023-05-16T02:13:46.129Z,100166.39
2023-05-16T02:14:49.421Z,100161.07
2023-05-16T02:15:55.111Z,100163.47
2023-05-16T02:16:59.880Z,100163.77
2023-05-16T02:18:02.363Z,100160.80
2023-05-16T02:19:06.818Z,100160.66
2023-05-16T02:20:11.855Z,100161.78
2023-05-16T02:21:14.997Z,100158.00
2023-05-16T02:22:18.760Z,100160.27
2023-05-16T02:23:22.361Z,100159.56
2023-05-16T02:24:25.873Z,100157.44
2023-05-16T02:25:31.276Z,100160.41
2023-05-16T02:26:34.241Z,100153.48
2023-05-16T02:27:38.080Z,100146.30
2023-05-16T02:28:45.048Z,100152.92
2023-05-16T02:29:48.403Z,100149.25
2023-05-16T02:31:00.268Z,100149.82
2023-05-16T02:32:03.673Z,100153.34
2023-05-16T02:33:06.997Z,100152.78
2023-05-16T02:34:10.781Z,100149.53
2023-05-16T02:35:14.085Z,100149.53
2023-05-16T02:36:17.587Z,100162.37
2023-05-16T02:37:22.137Z,100149.28
2023-05-16T02:38:26.901Z,100158.42
2023-05-16T02:39:33.640Z,100158.00
2023-05-16T02:40:37.144Z,100157.86
2023-05-16T02:41:42.457Z,100159.45
2023-05-16T02:42:48.027Z,100163.66
2023-05-16T02:43:52.892Z,100160.27
2023-05-16T02:44:56.387Z,100163.20
2023-05-16T02:46:00.684Z,100150.91
2023-05-16T02:47:03.387Z,100159.52
2023-05-16T02:48:10.598Z,100159.66
2023-05-16T02:49:14.157Z,100157.97
2023-05-16T02:50:17.669Z,100163.19
2023-05-16T02:51:22.730Z,100158.81
2023-05-16T02:52:26.027Z,100154.72
2023-05-16T02:53:29.308Z,100156.55
2023-05-16T02:54:32.516Z,100161.03
2023-05-16T02:55:35.308Z,100160.33
2023-05-16T02:56:37.856Z,100158.48
2023-05-16T02:57:41.674Z,100164.56
2023-05-16T02:58:47.691Z,100162.67
2023-05-16T02:59:51.086Z,100165.36
2023-05-16T03:00:54.593Z,100162.58
2023-05-16T03:01:58.035Z,100160.19
2023-05-16T03:03:06.412Z,100168.09
2023-05-16T03:04:11.061Z,100168.65
2023-05-16T03:05:14.779Z,100161.55
2023-05-16T03:06:17.553Z,100168.19
2023-05-16T03:07:20.955Z,100166.34
2023-05-16T03:08:23.522Z,100164.08
2023-05-16T03:09:26.966Z,100166.67
2023-05-16T03:10:32.308Z,100166.49
2023-05-16T03:11:37.009Z,100169.64
2023-05-16T03:12:40.991Z,100159.61
2023-05-16T03:13:44.597Z,100167.47
2023-05-16T03:14:47.885Z,100169.72
2023-05-16T03:15:51.834Z,100161.20
2023-05-16T03:16:55.520Z,100164.01
2023-05-16T03:17:58.779Z,100172.70
2023-05-16T03:19:01.326Z,100167.89
2023-05-16T03:20:07.027Z,100169.03
2023-05-16T03:21:11.013Z,100170.31
2023-05-16T03:22:14.721Z,100163.11
2023-05-16T03:23:24.500Z,100163.31
2023-05-16T03:24:28.660Z,100169.32
2023-05-16T03:25:34.215Z,100162.89
2023-05-16T03:26:37.106Z,100168.03
2023-05-16T03:27:39.462Z,100163.22
2023-05-16T03:28:42.646Z,100158.22
2023-05-16T03:29:45.888Z,100158.70
2023-05-16T03:30:49.341Z,100156.38
2023-05-16T03:31:53.079Z,100155.69
2023-05-16T03:32:55.575Z,100157.93
2023-05-16T03:33:59.129Z,100162.89
2023-05-16T03:35:02.425Z,100160.62
2023-05-16T03:36:06.321Z,100164.95
2023-05-16T03:37:12.608Z,100161.38
2023-05-16T03:38:17.852Z,100164.22
2023-05-16T03:39:22.834Z,100163.77
2023-05-16T03:40:26.638Z,100169.44
2023-05-16T03:41:29.419Z,100163.92
2023-05-16T03:42:32.957Z,100163.08
2023-05-16T03:43:36.531Z,100154.24
2023-05-16T03:44:40.446Z,100164.22
2023-05-16T03:45:43.918Z,100157.08
2023-05-16T03:46:51.844Z,100162.59
2023-05-16T03:47:55.177Z,100158.92
2023-05-16T03:48:58.960Z,100165.94
2023-05-16T03:50:02.358Z,100164.86
2023-05-16T03:51:05.801Z,100163.47
2023-05-16T03:52:08.635Z,100167.23
2023-05-16T03:53:12.774Z,100163.77
2023-05-16T03:54:16.275Z,100164.69
2023-05-16T03:55:19.821Z,100162.53
2023-05-16T03:56:23.285Z,100169.95
2023-05-16T03:57:26.895Z,100166.91
2023-05-16T03:58:29.079Z,100161.92
2023-05-16T03:59:33.574Z,100169.23
2023-05-16T04:00:38.304Z,100172.83
2023-05-16T04:01:43.617Z,100167.70
2023-05-16T04:02:50.045Z,100164.92
2023-05-16T04:03:53.340Z,100173.77
2023-05-16T04:04:59.786Z,100171.69
2023-05-16T04:06:02.119Z,100175.52
2023-05-16T04:07:08.255Z,100166.78
2023-05-16T04:08:11.982Z,100162.84
2023-05-16T04:09:14.325Z,100169.23
2023-05-16T04:10:17.632Z,100171.69
2023-05-16T04:11:22.726Z,100170.08
2023-05-16T04:12:26.084Z,100168.39
2023-05-16T04:13:30.307Z,100169.94
2023-05-16T04:14:36.137Z,100172.53
2023-05-16T04:15:39.837Z,100171.63
2023-05-16T04:16:43.069Z,100176.31
2023-05-16T04:17:47.744Z,100174.38
2023-05-16T04:18:50.405Z,100173.08
2023-05-16T04:19:53.289Z,100178.45
2023-05-16T04:20:56.744Z,100177.06
2023-05-16T04:21:59.410Z,100183.44
2023-05-16T04:23:01.764Z,100186.37
2023-05-16T04:24:04.969Z,100194.34
2023-05-16T04:25:09.551Z,100193.05
2023-05-16T04:26:14.381Z,100193.20
2023-05-16T04:27:17.888Z,100203.55
2023-05-16T04:28:21.378Z,100206.48
2023-05-16T04:29:24.786Z,100200.50
2023-05-16T04:30:28.185Z,100196.48
2023-05-16T04:31:31.931Z,100202.34
2023-05-16T04:32:37.688Z,100204.10
2023-05-16T04:33:40.690Z,100205.80
2023-05-16T04:34:43.769Z,100203.34
2023-05-16T04:35:50.109Z,100204.80
2023-05-16T04:36:53.597Z,100211.08
2023-05-16T04:37:56.802Z,100199.73
2023-05-16T04:39:00.407Z,100202.95
2023-05-16T04:40:03.906Z,100213.28
2023-05-16T04:41:07.204Z,100215.95
2023-05-16T04:42:10.608Z,100219.23
2023-05-16T04:43:13.948Z,100214.94
2023-05-16T04:44:19.688Z,100219.71
2023-05-16T04:45:23.121Z,100219.45
2023-05-16T04:46:25.844Z,100215.07
2023-05-16T04:47:28.458Z,100216.77
2023-05-16T04:48:31.940Z,100226.22
2023-05-16T04:49:34.189Z,100222.86
2023-05-16T04:50:37.809Z,100231.27
2023-05-16T04:51:41.181Z,100229.57
2023-05-16T04:52:44.393Z,100219.81
2023-05-16T04:53:47.902Z,100229.23
2023-05-16T04:54:53.081Z,100217.71
2023-05-16T04:55:55.454Z,100216.56
2023-05-16T04:56:58.887Z,100213.77
2023-05-16T04:58:05.110Z,100224.07
2023-05-16T04:59:07.072Z,100214.69
2023-05-16T05:00:12.722Z,100212.45
2023-05-16T05:01:17.095Z,100215.07
2023-05-16T05:02:19.699Z,100213.50
2023-05-16T05:03:23.095Z,100212.89
2023-05-16T05:04:26.515Z,100218.84
2023-05-16T05:05:30.071Z,100212.92
2023-05-16T05:06:33.212Z,100220.16
2023-05-16T05:07:36.720Z,100212.92
2023-05-16T05:08:39.787Z,100220.34
2023-05-16T05:09:43.726Z,100204.95
2023-05-16T05:10:49.094Z,100212.77
2023-05-16T05:11:53.265Z,100209.23
2023-05-16T05:12:56.328Z,100216.74
2023-05-16T05:14:00.077Z,100211.22
2023-05-16T05:15:04.310Z,100211.22
2023-05-16T05:16:08.092Z,100220.53
2023-05-16T05:17:13.337Z,100215.92
2023-05-16T05:18:18.111Z,100217.30
2023-05-16T05:19:23.388Z,100219.97
2023-05-16T05:20:27.455Z,100218.00
2023-05-16T05:21:30.941Z,100218.37
2023-05-16T05:22:34.760Z,100219.27
2023-05-16T05:23:38.201Z,100225.19
2023-05-16T05:24:42.863Z,100218.00
2023-05-16T05:25:48.002Z,100227.59
2023-05-16T05:26:51.596Z,100218.89
2023-05-16T05:27:55.045Z,100218.94
2023-05-16T05:29:04.746Z,100221.52
2023-05-16T05:30:07.098Z,100219.30
2023-05-16T05:31:11.173Z,100223.05
2023-05-16T05:32:15.380Z,100222.55
2023-05-16T05:33:21.702Z,100230.63
2023-05-16T05:34:24.375Z,100221.38
2023-05-16T05:35:29.373Z,100225.08
2023-05-16T05:36:36.330Z,100227.14
2023-05-16T05:37:39.960Z,100225.81
2023-05-16T05:38:43.520Z,100233.22
2023-05-16T05:39:47.027Z,100235.59
2023-05-16T05:40:50.207Z,100234.23
2023-05-16T05:41:53.420Z,100236.66
2023-05-16T05:42:56.802Z,100233.11
2023-05-16T05:44:00.422Z,100228.89
2023-05-16T05:45:04.487Z,100238.03
2023-05-16T05:46:07.981Z,100246.23
2023-05-16T05:47:11.454Z,100238.44
2023-05-16T05:48:14.863Z,100251.23
2023-05-16T05:49:17.123Z,100252.61
2023-05-16T05:50:20.297Z,100250.24
2023-05-16T05:51:23.800Z,100253.41
2023-05-16T05:52:29.030Z,100259.47
2023-05-16T05:53:32.371Z,100250.68
2023-05-16T05:54:38.776Z,100252.31
2023-05-16T05:55:43.886Z,100264.83
2023-05-16T05:56:47.272Z,100260.08
2023-05-16T05:57:50.681Z,100261.02
2023-05-16T05:58:55.753Z,100254.24
2023-05-16T06:00:00.301Z,100259.27
2023-05-16T06:01:03.705Z,100255.80
2023-05-16T06:02:07.448Z,100258.90
2023-05-16T06:03:11.522Z,100258.90
2023-05-16T06:04:15.184Z,100256.86
2023-05-16T06:05:21.539Z,100261.30
2023-05-16T06:06:24.576Z,100261.14
2023-05-16T06:07:29.323Z,100255.02
2023-05-16T06:08:34.705Z,100254.20
2023-05-16T06:09:38.012Z,100269.38
2023-05-16T06:10:40.466Z,100251.51
2023-05-16T06:11:45.021Z,100263.80
2023-05-16T06:12:48.420Z,100263.17
2023-05-16T06:13:52.661Z,100266.58
2023-05-16T06:14:56.896Z,100273.50
2023-05-16T06:16:00.293Z,100273.34
2023-05-16T06:17:04.078Z,100276.80
2023-05-16T06:18:09.444Z,100270.20
2023-05-16T06:19:16.375Z,100280.08
2023-05-16T06:20:20.990Z,100280.34
2023-05-16T06:21:24.807Z,100274.37
2023-05-16T06:22:28.106Z,100274.22
2023-05-16T06:23:32.019Z,100277.06
2023-05-16T06:24:35.531Z,100280.03
2023-05-16T06:25:39.010Z,100273.21
2023-05-16T06:26:43.060Z,100280.39
2023-05-16T06:27:48.694Z,100274.84
2023-05-16T06:28:52.269Z,100282.83
2023-05-16T06:29:56.833Z,100278.13
2023-05-16T06:31:00.349Z,100274.58
2023-05-16T06:32:04.093Z,100274.66
2023-05-16T06:33:07.797Z,100278.04
2023-05-16T06:34:15.202Z,100276.56
2023-05-16T06:35:19.103Z,100282.42
2023-05-16T06:36:22.464Z,100273.23
2023-05-16T06:37:26.841Z,100269.48
2023-05-16T06:38:30.295Z,100276.28
2023-05-16T06:39:33.858Z,100270.77
2023-05-16T06:40:36.579Z,100272.71
2023-05-16T06:41:40.405Z,100277.53
2023-05-16T06:42:48.597Z,100275.16
2023-05-16T06:43:54.089Z,100272.80
2023-05-16T06:44:57.819Z,100265.56
2023-05-16T06:46:00.588Z,100267.14
2023-05-16T06:47:07.193Z,100270.52
2023-05-16T06:48:12.209Z,100256.45
2023-05-16T06:49:16.132Z,100255.80
2023-05-16T06:50:19.515Z,100260.17
2023-05-16T06:51:22.079Z,100255.91
2023-05-16T06:52:25.888Z,100250.25
2023-05-16T06:53:30.227Z,100257.22
2023-05-16T06:54:34.778Z,100249.45
2023-05-16T06:55:38.396Z,100253.41
2023-05-16T06:56:42.108Z,100258.22
2023-05-16T06:57:48.858Z,100247.02
2023-05-16T06:58:51.200Z,100247.91
2023-05-16T06:59:55.521Z,100254.25
2023-05-16T07:01:03.073Z,100250.28
2023-05-16T07:02:06.834Z,100239.13
2023-05-16T07:03:11.426Z,100240.91
2023-05-16T07:04:18.147Z,100242.59
2023-05-16T07:05:21.400Z,100239.41
2023-05-16T07:06:24.930Z,100242.26
2023-05-16T07:07:28.638Z,100245.46
2023-05-16T07:08:32.888Z,100230.37
2023-05-16T07:09:36.813Z,100239.13
2023-05-16T07:10:40.216Z,100236.44
2023-05-16T07:11:42.897Z,100231.45
2023-05-16T07:12:47.827Z,100217.99
2023-05-16T07:13:51.456Z,100225.84
2023-05-16T07:14:54.762Z,100227.93
2023-05-16T07:15:58.770Z,100223.37
2023-05-16T07:17:02.762Z,100227.70
2023-05-16T07:18:06.752Z,100219.77
2023-05-16T07:19:09.743Z,100224.86
2023-05-16T07:20:15.407Z,100227.84
2023-05-16T07:21:18.853Z,100230.39
2023-05-16T07:22:22.505Z,100234.91
2023-05-16T07:23:25.240Z,100227.44
2023-05-16T07:24:28.676Z,100227.39
2023-05-16T07:25:32.705Z,100237.66
2023-05-16T07:26:35.373Z,100242.89
2023-05-16T07:27:42.962Z,100235.37
2023-05-16T07:28:46.569Z,100241.59
2023-05-16T07:29:50.181Z,100242.19
2023-05-16T07:30:53.683Z,100238.66
2023-05-16T07:31:56.596Z,100240.13
2023-05-16T07:33:01.690Z,100234.31
2023-05-16T07:34:05.473Z,100233.97
2023-05-16T07:35:10.273Z,100227.60
2023-05-16T07:36:17.344Z,100231.53
2023-05-16T07:37:20.044Z,100235.38
2023-05-16T07:38:23.439Z,100239.81
2023-05-16T07:39:28.511Z,100237.30
2023-05-16T07:40:32.226Z,100231.98
2023-05-16T07:41:35.484Z,100232.27
2023-05-16T07:42:38.912Z,100234.13
2023-05-16T07:43:41.386Z,100230.45
2023-05-16T07:44:47.895Z,100224.91
2023-05-16T07:45:50.909Z,100230.93
2023-05-16T07:46:55.762Z,100220.93
2023-05-16T07:48:01.686Z,100218.55
2023-05-16T07:49:05.335Z,100221.31
2023-05-16T07:50:10.826Z,100218.84
2023-05-16T07:51:14.679Z,100225.75
2023-05-16T07:52:18.615Z,100226.74
2023-05-16T07:53:25.344Z,100227.16
2023-05-16T07:54:28.582Z,100226.16
2023-05-16T07:55:32.153Z,100227.39
2023-05-16T07:56:35.764Z,100228.53
2023-05-16T07:57:39.299Z,100223.69
2023-05-16T07:58:43.093Z,100230.52
2023-05-16T07:59:47.781Z,100231.07
2023-05-16T08:00:52.749Z,100236.61
2023-05-16T08:02:00.177Z,100236.16
2023-05-16T08:03:08.070Z,100228.61
2023-05-16T08:04:11.786Z,100233.83
2023-05-16T08:05:15.244Z,100244.82
2023-05-16T08:06:18.904Z,100237.44
2023-05-16T08:07:23.024Z,100241.91
2023-05-16T08:08:25.681Z,100234.45
2023-05-16T08:09:29.092Z,100243.36
2023-05-16T08:10:32.834Z,100246.46
2023-05-16T08:11:37.153Z,100238.93
2023-05-16T08:12:41.815Z,100248.73
2023-05-16T08:13:46.978Z,100245.91
2023-05-16T08:14:51.792Z,100248.27
2023-05-16T08:15:56.750Z,100241.34
2023-05-16T08:17:01.364Z,100250.75
2023-05-16T08:18:06.934Z,100251.20
2023-05-16T08:19:12.886Z,100253.74
2023-05-16T08:20:16.382Z,100250.73
2023-05-16T08:21:19.046Z,100248.41
2023-05-16T08:22:22.832Z,100250.36
2023-05-16T08:23:26.683Z,100251.50
2023-05-16T08:24:30.071Z,100252.08
2023-05-16T08:25:33.472Z,100254.29
2023-05-16T08:26:37.934Z,100248.58
2023-05-16T08:27:44.590Z,100262.02
2023-05-16T08:28:48.373Z,100253.26
2023-05-16T08:29:52.104Z,100263.35
2023-05-16T08:30:55.367Z,100257.97
2023-05-16T08:31:58.957Z,100265.05
2023-05-16T08:33:07.788Z,100265.05
2023-05-16T08:34:12.590Z,100259.91
2023-05-16T08:35:17.825Z,100262.15
2023-05-16T08:36:21.796Z,100262.45
2023-05-16T08:37:25.612Z,100261.45
2023-05-16T08:38:29.840Z,100264.05
2023-05-16T08:39:32.302Z,100265.30
2023-05-16T08:40:35.912Z,100267.44
2023-05-16T08:41:40.153Z,100264.05
2023-05-16T08:42:45.316Z,100273.36
2023-05-16T08:43:52.417Z,100281.13
2023-05-16T08:44:58.654Z,100283.52
2023-05-16T08:46:02.008Z,100275.50
2023-05-16T08:47:10.163Z,100281.13
2023-05-16T08:48:16.091Z,100270.87
2023-05-16T08:49:20.483Z,100264.02
2023-05-16T08:50:26.094Z,100258.82
2023-05-16T08:51:31.360Z,100247.22
2023-05-16T08:52:35.811Z,100251.53
2023-05-16T08:53:40.977Z,100255.22
2023-05-16T08:54:48.545Z,100245.66
2023-05-16T08:55:53.221Z,100251.95
2023-05-16T08:56:57.008Z,100257.19
2023-05-16T08:58:01.241Z,100238.00
2023-05-16T08:59:04.964Z,100244.66
2023-05-16T09:00:11.572Z,100242.53
2023-05-16T09:01:14.816Z,100248.55
2023-05-16T09:02:18.182Z,100234.16
2023-05-16T09:03:22.950Z,100228.23
2023-05-16T09:04:28.282Z,100218.61
2023-05-16T09:05:35.487Z,100215.34
2023-05-16T09:06:39.428Z,100217.19
2023-05-16T09:07:46.099Z,100216.61
2023-05-16T09:08:50.397Z,100214.48
2023-05-16T09:09:53.846Z,100217.45
2023-05-16T09:10:57.204Z,100217.27
2023-05-16T09:12:00.918Z,100212.89
2023-05-16T09:13:06.293Z,100207.13
2023-05-16T09:14:09.938Z,100209.30
2023-05-16T09:15:13.747Z,100206.19
2023-05-16T09:16:20.019Z,100210.34
2023-05-16T09:17:36.018Z,100212.00
2023-05-16T09:18:28.989Z,100215.30
2023-05-16T09:19:40.128Z,100210.87
2023-05-16T09:20:49.930Z,100205.48
2023-05-16T09:21:53.450Z,100209.39
2023-05-16T09:22:59.074Z,100202.27
2023-05-16T09:24:06.723Z,100204.03
2023-05-16T09:25:18.350Z,100198.12
2023-05-16T09:26:15.407Z,100212.05
2023-05-16T09:27:18.394Z,100210.08
2023-05-16T09:28:23.431Z,100208.97
2023-05-16T09:29:28.013Z,100210.19
2023-05-16T09:30:34.938Z,100210.86
2023-05-16T09:31:38.110Z,100210.34
2023-05-16T09:32:44.775Z,100211.71
2023-05-16T09:33:48.841Z,100212.08
2023-05-16T09:34:53.882Z,100205.86
2023-05-16T09:36:02.401Z,100208.86
2023-05-16T09:37:06.229Z,100208.89
2023-05-16T09:38:10.464Z,100189.56
2023-05-16T09:39:15.761Z,100200.87
2023-05-16T09:40:21.332Z,100202.69
2023-05-16T09:41:24.939Z,100209.13
2023-05-16T09:42:27.627Z,100205.09
2023-05-16T09:43:36.393Z,100205.08
2023-05-16T09:44:39.446Z,100203.00
2023-05-16T09:45:44.920Z,100204.72
2023-05-16T09:46:47.329Z,100198.13
2023-05-16T09:47:50.692Z,100201.52
2023-05-16T09:48:54.495Z,100203.53
2023-05-16T09:49:58.005Z,100202.39
2023-05-16T09:51:07.053Z,100200.27
2023-05-16T09:52:15.519Z,100201.12
2023-05-16T09:53:20.476Z,100209.97
2023-05-16T09:54:32.814Z,100211.00
2023-05-16T09:55:36.319Z,100204.30
2023-05-16T09:56:47.964Z,100212.28
2023-05-16T09:57:52.829Z,100220.75
2023-05-16T09:58:59.532Z,100225.14
2023-05-16T10:00:08.259Z,100229.36
2023-05-16T10:01:12.533Z,100230.89
2023-05-16T10:02:18.400Z,100231.50
2023-05-16T10:03:23.611Z,100230.87
2023-05-16T10:04:27.671Z,100233.73
2023-05-16T10:05:31.558Z,100231.89
2023-05-16T10:06:36.570Z,100233.81
2023-05-16T10:07:39.946Z,100240.56
2023-05-16T10:08:47.726Z,100241.57
2023-05-16T10:09:52.154Z,100241.89
2023-05-16T10:10:58.478Z,100243.58
2023-05-16T10:12:07.003Z,100243.78
2023-05-16T10:13:13.365Z,100238.19
2023-05-16T10:14:18.596Z,100241.98
2023-05-16T10:15:25.482Z,100244.69
2023-05-16T10:16:28.409Z,100233.67
2023-05-16T10:17:36.158Z,100240.61
2023-05-16T10:18:40.570Z,100246.38
2023-05-16T10:19:43.965Z,100236.44
2023-05-16T10:20:53.053Z,100240.88
2023-05-16T10:22:00.384Z,100242.94
2023-05-16T10:23:04.980Z,100248.05
2023-05-16T10:24:09.463Z,100242.50
2023-05-16T10:25:24.163Z,100236.11
2023-05-16T10:26:30.969Z,100235.27
2023-05-16T10:27:36.392Z,100231.20
2023-05-16T10:28:41.744Z,100233.06
2023-05-16T10:30:55.405Z,100231.02
2023-05-16T10:31:59.852Z,100241.34
2023-05-16T10:33:05.117Z,100233.23
2023-05-16T10:34:08.487Z,100243.86
2023-05-16T10:35:11.788Z,100237.47
2023-05-16T10:36:16.143Z,100238.98
2023-05-16T10:37:21.044Z,100244.19
2023-05-16T10:38:25.513Z,100246.24
2023-05-16T10:39:31.107Z,100233.22
2023-05-16T10:40:37.603Z,100231.20
2023-05-16T10:41:41.065Z,100227.77
2023-05-16T10:42:45.830Z,100240.92
2023-05-16T10:43:59.680Z,100241.20
2023-05-16T10:45:18.480Z,100228.41
2023-05-16T10:46:23.033Z,100234.00
2023-05-16T10:47:27.329Z,100227.50
2023-05-16T10:48:31.230Z,100237.19
2023-05-16T10:49:34.736Z,100235.66
2023-05-16T10:50:43.250Z,100236.50
2023-05-16T10:51:46.166Z,100232.27
2023-05-16T10:52:50.631Z,100229.90
2023-05-16T10:53:57.499Z,100236.45
2023-05-16T10:55:02.694Z,100242.05
2023-05-16T10:56:09.626Z,100234.23
2023-05-16T10:57:15.992Z,100233.16
2023-05-16T10:58:20.148Z,100237.84
2023-05-16T10:59:26.649Z,100246.77
2023-05-16T11:00:32.339Z,100229.89
2023-05-16T11:01:36.289Z,100225.11
2023-05-16T11:02:46.376Z,100229.39
2023-05-16T11:04:01.024Z,100233.06
2023-05-16T11:05:06.636Z,100227.23
2023-05-16T11:06:13.492Z,100229.78
2023-05-16T11:07:18.764Z,100234.01
2023-05-16T11:08:22.374Z,100231.31
2023-05-16T11:09:29.264Z,100237.75
2023-05-16T11:10:34.302Z,100233.77
2023-05-16T11:11:41.923Z,100231.50
2023-05-16T11:12:54.462Z,100236.85
2023-05-16T11:13:57.334Z,100236.48
2023-05-16T11:15:03.137Z,100236.28
2023-05-16T11:16:28.818Z,100232.34
2023-05-16T11:17:34.338Z,100227.59
2023-05-16T11:18:39.681Z,100226.59
2023-05-16T11:19:47.264Z,100226.13
2023-05-16T11:20:55.675Z,100230.41
2023-05-16T11:22:18.279Z,100228.52
2023-05-16T11:23:24.441Z,100227.88
2023-05-16T11:24:31.667Z,100237.66
2023-05-16T11:25:41.848Z,100226.87
2023-05-16T11:26:48.396Z,100219.96
2023-05-16T11:27:52.202Z,100229.00
2023-05-16T11:28:56.647Z,100226.22
2023-05-16T11:30:09.552Z,100218.84
2023-05-16T11:31:14.126Z,100216.20
2023-05-16T11:32:22.732Z,100220.20
2023-05-16T11:33:29.279Z,100219.46
2023-05-16T11:34:34.425Z,100211.13
2023-05-16T11:35:37.528Z,100209.44
2023-05-16T11:36:42.583Z,100207.42
2023-05-16T11:37:49.745Z,100202.19
2023-05-16T11:38:52.421Z,100208.75
2023-05-16T11:40:06.019Z,100211.45
2023-05-16T11:41:11.707Z,100218.06
2023-05-16T11:42:15.256Z,100217.89
2023-05-16T11:43:19.080Z,100224.90
2023-05-16T11:44:22.364Z,100218.58
2023-05-16T11:45:25.768Z,100214.03
2023-05-16T11:46:29.704Z,100220.01
2023-05-16T11:47:32.181Z,100216.66
2023-05-16T11:48:37.785Z,100223.26
2023-05-16T11:49:42.378Z,100228.23
2023-05-16T11:50:48.134Z,100217.68
2023-05-16T11:51:54.528Z,100222.91
2023-05-16T11:53:00.115Z,100215.42
2023-05-16T11:54:05.824Z,100217.36
2023-05-16T11:55:12.069Z,100217.59
2023-05-16T11:56:19.339Z,100214.61
2023-05-16T11:57:22.719Z,100215.61
2023-05-16T11:58:28.621Z,100229.13
2023-05-16T11:59:32.238Z,100215.34
2023-05-16T12:00:35.053Z,100215.88
2023-05-16T12:01:39.559Z,100214.70
2023-05-16T12:02:42.840Z,100212.14
2023-05-16T12:03:48.661Z,100217.53
2023-05-16T12:04:53.329Z,100208.62
2023-05-16T12:05:59.104Z,100201.69
2023-05-16T12:07:01.770Z,100212.98
2023-05-16T12:08:06.176Z,100201.53
2023-05-16T12:09:12.652Z,100202.55
2023-05-16T12:10:18.468Z,100197.14
2023-05-16T12:11:24.367Z,100204.91
2023-05-16T12:12:29.646Z,100211.16
2023-05-16T12:13:33.248Z,100205.92
2023-05-16T12:14:37.392Z,100196.13
2023-05-16T12:15:44.964Z,100196.98
2023-05-16T12:16:52.332Z,100207.63
2023-05-16T12:17:57.964Z,100204.92
2023-05-16T12:19:02.730Z,100208.10
2023-05-16T12:20:07.449Z,100204.91
2023-05-16T12:21:11.355Z,100196.13
2023-05-16T12:22:18.933Z,100203.73